Time;durP1;ratioP1;P1;durP2;ratioP2;P2;SDS_P1;SDS_P2;PMS_P1;PMS_P2;Temp;Humidity;BMP_temperature;BMP_pressure;BME280_temperature;BME280_humidity;BME280_pressure;Samples;Min_cycle;Max_cycle;Signal;HPM_P1;HPM_P2
2021/10/01 00:00:14;;;;;;;13.57;7.97;;;12.40;99.90;;;;;;4123841;28;20030;-66
2021/10/01 00:02:16;;;;;;;10.90;7.70;;;12.50;99.90;;;;;;4123784;28;20747;-64
2021/10/01 00:04:17;;;;;;;12.40;7.70;;;12.50;99.90;;;;;;4123738;28;20479;-65
2021/10/01 00:06:19;;;;;;;17.17;9.23;;;12.40;99.90;;;;;;4124184;28;20062;-64
2021/10/01 00:08:20;;;;;;;15.73;8.80;;;12.40;99.90;;;;;;4123653;28;20525;-64
2021/10/01 00:10:21;;;;;;;14.53;9.17;;;12.40;99.90;;;;;;4124368;28;20083;-64
2021/10/01 00:12:22;;;;;;;13.17;8.67;;;12.40;99.90;;;;;;4122763;28;20034;-64
2021/10/01 00:14:26;;;;;;;14.67;8.50;;;12.40;99.90;;;;;;4124676;28;20042;-64
2021/10/01 00:16:27;;;;;;;17.37;9.57;;;12.40;99.90;;;;;;4122951;28;20105;-64
2021/10/01 00:18:29;;;;;;;16.77;9.80;;;12.30;99.90;;;;;;4124488;28;20357;-70
2021/10/01 00:20:30;;;;;;;13.73;9.07;;;12.30;99.90;;;;;;4123300;28;20038;-63
2021/10/01 00:22:31;;;;;;;12.33;7.47;;;12.30;99.90;;;;;;4124185;28;20030;-64
2021/10/01 00:24:34;;;;;;;11.63;7.97;;;12.30;99.90;;;;;;4123265;28;20084;-64
2021/10/01 00:26:36;;;;;;;14.10;7.50;;;12.30;99.90;;;;;;4123948;28;20042;-64
2021/10/01 00:28:37;;;;;;;13.43;8.03;;;12.30;99.90;;;;;;4123357;28;20077;-64
2021/10/01 00:30:39;;;;;;;9.93;6.10;;;12.20;99.90;;;;;;4124315;28;20042;-64
2021/10/01 00:32:40;;;;;;;10.23;6.20;;;12.20;99.90;;;;;;4123733;28;20430;-63
2021/10/01 00:34:41;;;;;;;9.70;5.87;;;12.20;99.90;;;;;;4123039;28;20057;-64
2021/10/01 00:36:42;;;;;;;9.37;5.90;;;12.20;99.90;;;;;;4123316;28;20034;-63
2021/10/01 00:38:43;;;;;;;11.07;7.17;;;12.10;99.90;;;;;;4123079;28;20038;-66
2021/10/01 00:40:45;;;;;;;11.63;6.83;;;12.10;99.90;;;;;;4124145;28;20034;-64
2021/10/01 00:42:46;;;;;;;8.80;6.17;;;12.10;99.90;;;;;;4122890;28;20031;-66
2021/10/01 00:44:48;;;;;;;7.77;5.97;;;12.10;99.90;;;;;;4123991;28;20447;-64
2021/10/01 00:46:49;;;;;;;10.33;6.80;;;12.10;99.90;;;;;;4123213;28;20030;-64
2021/10/01 00:48:50;;;;;;;11.03;6.87;;;12.10;99.90;;;;;;4124076;28;20112;-67
2021/10/01 00:50:51;;;;;;;9.40;6.00;;;12.10;99.90;;;;;;4123254;28;20442;-64
2021/10/01 00:52:53;;;;;;;9.73;6.37;;;12.10;99.90;;;;;;4124250;28;20038;-65
2021/10/01 00:54:54;;;;;;;11.23;7.07;;;12.10;99.90;;;;;;4123001;28;20026;-64
2021/10/01 00:56:59;;;;;;;11.37;6.40;;;12.10;99.90;;;;;;4122370;28;20038;-64
2021/10/01 00:59:00;;;;;;;11.83;7.53;;;12.10;99.90;;;;;;4122900;28;21097;-64
2021/10/01 01:03:04;;;;;;;12.53;8.40;;;12.10;99.90;;;;;;4122604;28;20557;-64
2021/10/01 01:05:07;;;;;;;17.33;10.13;;;12.10;99.90;;;;;;4123336;28;20128;-65
2021/10/01 01:07:35;;;;;;;14.40;9.27;;;12.20;99.90;;;;;;4123257;28;20454;-64
2021/10/01 01:09:55;;;;;;;13.17;8.37;;;12.20;99.90;;;;;;4126563;28;20056;-63
2021/10/01 01:12:08;;;;;;;16.02;9.57;;;12.10;99.90;;;;;;4126164;28;20089;-67
2021/10/01 01:14:16;;;;;;;17.63;10.63;;;12.20;99.90;;;;;;4126898;28;20034;-66
2021/10/01 01:16:32;;;;;;;24.90;13.60;;;12.10;99.90;;;;;;4126474;28;20499;-64
2021/10/01 01:18:41;;;;;;;25.07;12.90;;;12.20;99.90;;;;;;4126859;28;20478;-64
2021/10/01 01:20:47;;;;;;;25.57;14.20;;;12.20;99.90;;;;;;4126594;28;20038;-66
2021/10/01 01:23:21;;;;;;;26.00;14.03;;;12.10;99.90;;;;;;4126985;28;20479;-64
2021/10/01 01:25:48;;;;;;;21.63;12.87;;;12.20;99.90;;;;;;4125661;28;20092;-68
2021/10/01 01:27:54;;;;;;;21.73;11.87;;;12.20;99.90;;;;;;4127006;28;20069;-65
2021/10/01 01:30:20;;;;;;;21.17;11.20;;;12.20;99.90;;;;;;4125764;28;20081;-63
2021/10/01 01:32:23;;;;;;;20.50;11.30;;;12.20;99.90;;;;;;4127200;28;20553;-65
2021/10/01 01:34:30;;;;;;;21.13;12.40;;;12.20;99.90;;;;;;4125497;28;20034;-65
2021/10/01 01:36:31;;;;;;;23.37;12.57;;;12.20;99.90;;;;;;4127190;28;20031;-63
2021/10/01 01:38:40;;;;;;;28.33;14.27;;;12.10;99.90;;;;;;4125039;28;20050;-64
2021/10/01 01:40:45;;;;;;;24.10;14.47;;;12.10;99.90;;;;;;4125060;28;20054;-69
2021/10/01 01:42:48;;;;;;;25.33;14.27;;;12.10;99.90;;;;;;4125597;28;20042;-66
2021/10/01 01:44:51;;;;;;;33.47;16.33;;;12.10;99.90;;;;;;4126811;28;20641;-70
2021/10/01 01:46:53;;;;;;;29.03;14.80;;;12.10;99.90;;;;;;4125117;28;20030;-69
2021/10/01 01:48:54;;;;;;;28.63;15.03;;;12.10;99.90;;;;;;4126906;28;20026;-67
2021/10/01 01:50:57;;;;;;;28.47;16.13;;;12.00;99.90;;;;;;4125352;28;20034;-64
2021/10/01 01:52:59;;;;;;;34.03;16.33;;;12.00;99.90;;;;;;4125983;28;20026;-64
2021/10/01 01:55:01;;;;;;;25.50;14.67;;;12.00;99.90;;;;;;4125084;28;20035;-63
2021/10/01 01:57:03;;;;;;;25.80;14.50;;;12.00;99.90;;;;;;4125897;28;20422;-66
2021/10/01 01:59:06;;;;;;;28.63;14.73;;;12.00;99.90;;;;;;4124398;28;20046;-67
2021/10/01 02:01:08;;;;;;;28.67;14.43;;;12.00;99.90;;;;;;4125795;28;20034;-65
2021/10/01 02:03:11;;;;;;;32.00;14.73;;;12.00;99.90;;;;;;4125954;28;20104;-66
2021/10/01 02:05:13;;;;;;;27.07;14.20;;;12.00;99.90;;;;;;4124674;28;20046;-63
2021/10/01 02:07:16;;;;;;;21.27;11.30;;;12.00;99.90;;;;;;4126023;28;20486;-64
2021/10/01 02:09:19;;;;;;;20.77;12.70;;;12.00;99.90;;;;;;4124595;28;20044;-67
2021/10/01 02:11:21;;;;;;;21.27;12.63;;;12.00;99.90;;;;;;4126165;28;20533;-64
2021/10/01 02:13:23;;;;;;;19.90;11.43;;;12.00;99.90;;;;;;4125275;28;20092;-63
2021/10/01 02:15:26;;;;;;;17.43;10.53;;;12.00;99.90;;;;;;4126564;28;20438;-62
2021/10/01 02:17:31;;;;;;;21.70;11.43;;;12.00;99.90;;;;;;4124943;28;20039;-62
2021/10/01 02:19:34;;;;;;;18.10;11.27;;;12.00;99.90;;;;;;4125426;28;20090;-65
2021/10/01 02:21:36;;;;;;;21.83;11.90;;;12.00;99.90;;;;;;4119063;28;20466;-67
2021/10/01 02:23:37;;;;;;;21.50;12.33;;;12.00;99.90;;;;;;4118288;28;20430;-69
2021/10/01 02:28:12;;;;;;;23.10;12.43;;;12.00;99.90;;;;;;4126586;28;20144;-61
2021/10/01 02:30:17;;;;;;;22.20;12.17;;;12.00;99.90;;;;;;4124959;28;20022;-63
2021/10/01 02:32:23;;;;;;;18.87;11.30;;;12.00;99.90;;;;;;4125866;28;20077;-67
2021/10/01 02:34:40;;;;;;;19.93;12.23;;;12.00;99.90;;;;;;4124998;28;20387;-71
2021/10/01 02:36:42;;;;;;;18.80;10.97;;;12.00;99.90;;;;;;4125591;28;20031;-63
2021/10/01 02:38:43;;;;;;;20.00;12.50;;;12.00;99.90;;;;;;4124411;28;20451;-65
2021/10/01 02:40:45;;;;;;;20.80;11.93;;;12.00;99.90;;;;;;4125961;28;20081;-64
2021/10/01 02:42:46;;;;;;;23.30;13.23;;;12.00;99.90;;;;;;4124583;28;20039;-63
2021/10/01 02:44:50;;;;;;;20.40;11.80;;;12.00;99.90;;;;;;4125571;28;20022;-68
2021/10/01 02:46:51;;;;;;;19.57;10.93;;;12.00;99.90;;;;;;4122920;28;20100;-62
2021/10/01 02:48:52;;;;;;;21.50;11.83;;;12.00;99.90;;;;;;4124257;28;20034;-64
2021/10/01 02:51:01;;;;;;;16.90;11.07;;;12.00;99.90;;;;;;4110451;28;20042;-63
2021/10/01 02:53:28;;;;;;;20.87;11.47;;;12.00;99.90;;;;;;4107261;28;20042;-64
2021/10/01 02:55:56;;;;;;;18.57;11.80;;;11.90;99.90;;;;;;4108066;28;20077;-63
2021/10/01 02:58:01;;;;;;;19.03;11.93;;;11.90;99.90;;;;;;4114100;28;20084;-62
2021/10/01 03:00:05;;;;;;;20.33;11.77;;;11.90;99.90;;;;;;4124647;28;20129;-64
2021/10/01 03:02:06;;;;;;;18.93;10.97;;;11.90;99.90;;;;;;4125284;28;20448;-64
2021/10/01 03:04:10;;;;;;;19.67;11.40;;;11.90;99.90;;;;;;4124930;28;20536;-63
2021/10/01 03:06:13;;;;;;;21.80;10.90;;;11.90;99.90;;;;;;4124486;28;20565;-63
2021/10/01 03:08:16;;;;;;;21.73;11.23;;;11.90;99.90;;;;;;4124604;28;20034;-64
2021/10/01 03:10:17;;;;;;;20.53;11.67;;;11.90;99.90;;;;;;4124337;28;20030;-66
2021/10/01 03:12:19;;;;;;;21.30;12.43;;;11.90;99.90;;;;;;4125191;28;20042;-63
2021/10/01 03:14:21;;;;;;;20.63;11.07;;;11.90;99.90;;;;;;4124217;28;20073;-63
2021/10/01 03:16:23;;;;;;;19.83;10.63;;;11.80;99.90;;;;;;4124193;28;20096;-64
2021/10/01 03:18:27;;;;;;;20.80;11.67;;;11.90;99.90;;;;;;4123878;28;20569;-63
2021/10/01 03:20:28;;;;;;;23.73;11.83;;;11.90;99.90;;;;;;4125096;28;20030;-63
2021/10/01 03:22:33;;;;;;;20.47;12.00;;;11.80;99.90;;;;;;4123627;28;20038;-64
2021/10/01 03:24:35;;;;;;;22.43;12.23;;;11.80;99.90;;;;;;4124948;28;20034;-64
2021/10/01 03:26:36;;;;;;;21.13;12.30;;;11.80;99.90;;;;;;4123726;28;20824;-63
2021/10/01 03:28:40;;;;;;;21.13;12.30;;;11.80;99.90;;;;;;4125095;28;20861;-65
2021/10/01 03:30:42;;;;;;;20.67;12.30;;;11.80;99.90;;;;;;4123861;28;20561;-64
2021/10/01 03:32:45;;;;;;;21.10;11.70;;;11.80;99.90;;;;;;4124742;28;20070;-66
2021/10/01 03:34:46;;;;;;;21.13;12.00;;;11.80;99.90;;;;;;4123841;28;20046;-64
2021/10/01 03:36:48;;;;;;;21.73;12.40;;;11.80;99.90;;;;;;4124555;28;20038;-66
2021/10/01 03:38:54;;;;;;;22.67;12.33;;;11.80;99.90;;;;;;4123071;28;20407;-63
2021/10/01 03:40:59;;;;;;;24.03;12.33;;;11.80;99.90;;;;;;4124041;28;20045;-65
2021/10/01 03:43:00;;;;;;;23.70;12.60;;;11.80;99.90;;;;;;4123836;28;20069;-63
2021/10/01 03:45:02;;;;;;;22.10;12.70;;;11.80;99.90;;;;;;4123186;28;20031;-64
2021/10/01 03:47:03;;;;;;;20.17;12.43;;;11.70;99.90;;;;;;4108219;28;20035;-64
2021/10/01 03:49:04;;;;;;;19.27;11.60;;;11.80;99.90;;;;;;4107818;28;20510;-63
2021/10/01 03:51:05;;;;;;;20.30;10.80;;;11.80;99.90;;;;;;4108613;28;20027;-62
2021/10/01 03:53:07;;;;;;;18.73;11.87;;;11.80;99.90;;;;;;4107299;28;20111;-64
2021/10/01 03:55:09;;;;;;;20.10;11.03;;;11.70;99.90;;;;;;4108453;28;20105;-63
2021/10/01 03:57:10;;;;;;;18.53;11.53;;;11.80;99.90;;;;;;4107563;28;20023;-64
2021/10/01 03:59:11;;;;;;;18.40;11.27;;;11.70;99.90;;;;;;4108320;28;20093;-64
2021/10/01 04:01:13;;;;;;;22.00;12.97;;;11.70;99.90;;;;;;4107290;28;20423;-65
2021/10/01 04:03:14;;;;;;;30.23;11.93;;;11.70;99.90;;;;;;4108453;28;20959;-63
2021/10/01 04:05:16;;;;;;;16.93;10.87;;;11.70;99.90;;;;;;4106909;28;20058;-63
2021/10/01 04:07:17;;;;;;;20.67;11.43;;;11.70;99.90;;;;;;4106684;28;20097;-65
2021/10/01 04:09:18;;;;;;;23.93;13.23;;;11.70;99.90;;;;;;4107478;28;20043;-64
2021/10/01 04:11:21;;;;;;;19.57;11.47;;;11.70;99.90;;;;;;4107540;28;20467;-63
2021/10/01 04:13:22;;;;;;;20.90;12.07;;;11.70;99.90;;;;;;4107289;28;20022;-64
2021/10/01 04:15:23;;;;;;;19.47;11.40;;;11.70;99.90;;;;;;4107393;28;20066;-66
2021/10/01 04:17:24;;;;;;;18.33;10.80;;;11.70;99.90;;;;;;4107770;28;20047;-63
2021/10/01 04:19:26;;;;;;;23.37;11.37;;;11.70;99.90;;;;;;4107243;28;20502;-66
2021/10/01 04:21:27;;;;;;;19.50;11.17;;;11.70;99.90;;;;;;4107573;28;20138;-68
2021/10/01 04:23:28;;;;;;;19.70;11.47;;;11.70;99.90;;;;;;4106180;28;20092;-65
2021/10/01 04:25:31;;;;;;;20.33;11.67;;;11.70;99.90;;;;;;4106795;28;20038;-64
2021/10/01 04:27:32;;;;;;;16.47;10.07;;;11.70;99.90;;;;;;4106484;28;20093;-63
2021/10/01 04:29:33;;;;;;;19.10;11.50;;;11.70;99.90;;;;;;4107340;28;20590;-72
2021/10/01 04:31:35;;;;;;;23.30;11.13;;;11.70;99.90;;;;;;4105768;28;20042;-66
2021/10/01 04:33:40;;;;;;;21.13;10.67;;;11.70;99.90;;;;;;4107403;28;20081;-66
2021/10/01 04:35:41;;;;;;;18.33;10.33;;;11.60;99.90;;;;;;4106189;28;20030;-65
2021/10/01 04:37:42;;;;;;;18.53;10.80;;;11.60;99.90;;;;;;4107706;28;20035;-64
2021/10/01 04:39:44;;;;;;;18.90;11.77;;;11.60;99.90;;;;;;4105990;28;20777;-65
2021/10/01 04:41:45;;;;;;;20.83;11.53;;;11.60;99.90;;;;;;4107531;28;20144;-65
2021/10/01 04:43:46;;;;;;;24.83;13.73;;;11.60;99.90;;;;;;4106495;28;20769;-70
2021/10/01 04:45:47;;;;;;;19.63;11.50;;;11.60;99.90;;;;;;4107439;28;20038;-66
2021/10/01 04:47:48;;;;;;;19.93;11.30;;;11.70;99.90;;;;;;4106899;28;20470;-66
2021/10/01 04:49:49;;;;;;;23.63;10.90;;;11.70;99.90;;;;;;4106573;28;20082;-62
2021/10/01 04:51:50;;;;;;;21.60;10.90;;;11.70;99.90;;;;;;4107182;28;20506;-63
2021/10/01 04:53:51;;;;;;;31.23;13.67;;;11.70;99.90;;;;;;4100635;28;20602;-65
2021/10/01 04:55:53;;;;;;;25.70;13.83;;;11.70;99.90;;;;;;4118259;28;20046;-63
2021/10/01 04:57:54;;;;;;;25.13;12.60;;;11.70;99.90;;;;;;4111656;28;20042;-64
2021/10/01 04:59:55;;;;;;;30.50;14.70;;;11.70;99.90;;;;;;4121276;28;20046;-65
2021/10/01 05:01:57;;;;;;;29.53;13.90;;;11.70;99.90;;;;;;4119305;28;20084;-61
2021/10/01 05:03:58;;;;;;;35.37;15.03;;;11.60;99.90;;;;;;4121612;28;20162;-68
2021/10/01 05:05:59;;;;;;;31.30;14.87;;;11.60;99.90;;;;;;4117665;28;20046;-66
2021/10/01 05:08:03;;;;;;;30.53;14.67;;;11.60;99.90;;;;;;4121753;28;20440;-69
2021/10/01 05:10:08;;;;;;;26.67;13.53;;;11.60;99.90;;;;;;4119742;28;20466;-64
2021/10/01 05:12:09;;;;;;;26.50;13.53;;;11.60;99.90;;;;;;4118849;28;20046;-71
2021/10/01 05:14:10;;;;;;;23.43;13.53;;;11.60;99.90;;;;;;4121615;28;20042;-67
2021/10/01 05:16:11;;;;;;;29.13;14.83;;;11.60;99.90;;;;;;4122811;28;20030;-66
2021/10/01 05:18:14;;;;;;;32.80;14.77;;;11.60;99.90;;;;;;4122574;28;20030;-62
2021/10/01 05:20:15;;;;;;;26.83;13.90;;;11.60;99.90;;;;;;4121950;28;20054;-63
2021/10/01 05:22:17;;;;;;;31.17;13.73;;;11.70;99.90;;;;;;4122744;28;20034;-66
2021/10/01 05:24:18;;;;;;;23.03;12.30;;;11.70;99.90;;;;;;4121088;28;20042;-65
2021/10/01 05:26:19;;;;;;;25.17;11.97;;;11.70;99.90;;;;;;4122831;28;20030;-64
2021/10/01 05:28:20;;;;;;;27.13;14.07;;;11.70;99.90;;;;;;4122311;28;20030;-67
2021/10/01 05:30:22;;;;;;;25.30;12.97;;;11.70;99.90;;;;;;4123053;28;20627;-64
2021/10/01 05:32:24;;;;;;;35.90;14.17;;;11.70;99.90;;;;;;4122331;28;20081;-62
2021/10/01 05:34:25;;;;;;;25.00;12.23;;;11.70;99.90;;;;;;4123549;28;20034;-67
2021/10/01 05:36:26;;;;;;;27.67;13.73;;;11.70;99.90;;;;;;4121809;28;20600;-64
2021/10/01 05:38:29;;;;;;;24.43;12.43;;;11.70;99.90;;;;;;4123223;28;20042;-64
2021/10/01 05:40:30;;;;;;;37.90;14.03;;;11.70;99.90;;;;;;4122326;28;20039;-63
2021/10/01 05:42:32;;;;;;;35.43;14.03;;;11.80;99.90;;;;;;4123077;28;20109;-65
2021/10/01 05:44:33;;;;;;;35.73;14.47;;;11.80;99.90;;;;;;4122329;28;20108;-64
2021/10/01 05:46:37;;;;;;;40.40;16.60;;;11.70;99.90;;;;;;4120898;28;20487;-63
2021/10/01 05:48:41;;;;;;;29.27;14.20;;;11.70;99.90;;;;;;4121992;28;20081;-63
2021/10/01 05:50:44;;;;;;;29.70;13.23;;;11.60;99.90;;;;;;4123189;28;20085;-63
2021/10/01 05:52:55;;;;;;;34.27;14.03;;;11.60;99.90;;;;;;4122124;28;20092;-64
2021/10/01 05:54:56;;;;;;;30.47;14.27;;;11.60;99.90;;;;;;4124157;28;20077;-63
2021/10/01 05:56:58;;;;;;;31.10;14.70;;;11.70;99.90;;;;;;4125296;28;20034;-63
2021/10/01 05:58:59;;;;;;;27.93;13.23;;;11.70;99.90;;;;;;4124542;28;20093;-63
2021/10/01 06:01:01;;;;;;;28.40;13.63;;;11.70;99.90;;;;;;4124119;28;20031;-63
2021/10/01 06:03:02;;;;;;;29.73;14.50;;;11.70;99.90;;;;;;4124391;28;20046;-64
2021/10/01 06:05:03;;;;;;;28.63;13.33;;;11.60;99.90;;;;;;4125923;28;20034;-64
2021/10/01 06:07:05;;;;;;;29.53;13.33;;;11.70;99.90;;;;;;4125012;28;20089;-64
2021/10/01 06:09:11;;;;;;;26.47;12.60;;;11.70;99.90;;;;;;4125900;28;20026;-67
2021/10/01 06:11:12;;;;;;;29.07;14.03;;;11.70;99.90;;;;;;4121895;28;20050;-64
2021/10/01 06:13:14;;;;;;;20.90;12.60;;;11.70;99.90;;;;;;4125557;28;20106;-64
2021/10/01 06:15:17;;;;;;;29.27;12.77;;;11.70;99.90;;;;;;4124451;28;20754;-64
2021/10/01 06:17:18;;;;;;;24.97;12.73;;;11.70;99.90;;;;;;4125530;28;20383;-64
2021/10/01 06:19:20;;;;;;;27.87;13.80;;;11.80;99.90;;;;;;4124262;28;20125;-65
2021/10/01 06:21:21;;;;;;;24.07;12.83;;;11.70;99.90;;;;;;4124124;28;20046;-64
2021/10/01 06:23:26;;;;;;;20.87;12.13;;;11.70;99.90;;;;;;4124235;28;20030;-63
2021/10/01 06:25:27;;;;;;;24.53;12.70;;;11.60;99.90;;;;;;4124670;28;20043;-63
2021/10/01 06:27:28;;;;;;;29.40;14.30;;;11.60;99.90;;;;;;4124766;28;20495;-65
2021/10/01 06:29:29;;;;;;;26.20;13.70;;;11.60;99.90;;;;;;4124444;28;20089;-63
2021/10/01 06:31:30;;;;;;;31.23;15.73;;;11.60;99.90;;;;;;4124657;28;20050;-63
2021/10/01 06:33:32;;;;;;;28.27;14.23;;;11.60;99.90;;;;;;4124552;28;20088;-63
2021/10/01 06:35:33;;;;;;;26.63;13.73;;;11.60;99.90;;;;;;4124944;28;20085;-63
2021/10/01 06:37:34;;;;;;;28.97;14.10;;;11.50;99.90;;;;;;4123535;28;20038;-65
2021/10/01 06:39:36;;;;;;;31.27;14.83;;;11.50;99.90;;;;;;4124782;28;20662;-64
2021/10/01 06:41:40;;;;;;;30.90;15.10;;;11.50;99.90;;;;;;4123768;28;20046;-63
2021/10/01 06:43:43;;;;;;;31.57;13.60;;;11.50;99.90;;;;;;4125113;28;20054;-64
2021/10/01 06:45:48;;;;;;;30.47;13.53;;;11.50;99.90;;;;;;4123446;28;20042;-63
2021/10/01 06:50:10;;;;;;;31.43;14.40;;;11.60;99.90;;;;;;4123444;28;20038;-64
2021/10/01 07:23:09;;;;;;;26.03;12.57;;;11.60;99.90;;;;;;4124368;28;20678;-64
2021/10/01 07:36:59;;;;;;;22.93;12.10;;;11.80;99.90;;;;;;4123823;28;20072;-65
2021/10/01 08:20:42;;;;;;;17.55;9.75;;;12.40;99.90;;;;;;4122622;28;20080;-65
2021/10/01 08:22:43;;;;;;;18.03;9.60;;;12.40;99.90;;;;;;4123250;28;20042;-64
2021/10/01 08:24:45;;;;;;;16.20;10.57;;;12.50;99.90;;;;;;4122966;28;20031;-65
2021/10/01 08:26:47;;;;;;;19.13;12.60;;;12.50;99.90;;;;;;4123303;28;20034;-64
2021/10/01 08:28:48;;;;;;;20.60;11.37;;;12.50;99.90;;;;;;4122649;28;20176;-64
2021/10/01 08:30:49;;;;;;;22.23;11.33;;;12.60;99.90;;;;;;4122912;28;20050;-63
2021/10/01 08:32:51;;;;;;;20.43;12.07;;;12.60;99.90;;;;;;4122800;28;20104;-62
2021/10/01 08:34:52;;;;;;;18.50;10.83;;;12.60;99.90;;;;;;4122126;28;20046;-62
2021/10/01 08:36:54;;;;;;;19.30;12.23;;;12.70;99.90;;;;;;4123203;28;20046;-63
2021/10/01 08:38:55;;;;;;;22.63;13.13;;;12.80;99.90;;;;;;4121703;28;20085;-64
2021/10/01 08:40:58;;;;;;;22.77;11.93;;;12.80;99.90;;;;;;4122475;28;20502;-65
2021/10/01 08:42:59;;;;;;;22.20;12.47;;;12.80;99.90;;;;;;4121766;28;20116;-63
2021/10/01 08:45:01;;;;;;;23.20;12.13;;;12.90;99.90;;;;;;4122729;28;20093;-63
2021/10/01 08:47:05;;;;;;;22.93;11.90;;;12.90;99.90;;;;;;4121270;28;20045;-64
2021/10/01 08:49:08;;;;;;;18.67;10.27;;;13.00;99.90;;;;;;4123571;28;20108;-66
2021/10/01 08:51:11;;;;;;;17.23;11.00;;;13.10;99.90;;;;;;4122211;28;20100;-66
2021/10/01 08:53:14;;;;;;;19.03;11.87;;;13.10;99.90;;;;;;4123416;28;20038;-63
2021/10/01 08:55:16;;;;;;;19.53;11.93;;;13.20;99.90;;;;;;4122294;28;20104;-65
2021/10/01 08:57:17;;;;;;;16.53;10.20;;;13.30;99.90;;;;;;4123451;28;20030;-65
2021/10/01 08:59:20;;;;;;;19.27;11.67;;;13.40;99.90;;;;;;4122285;28;20035;-63
2021/10/01 09:01:21;;;;;;;17.93;10.70;;;13.40;99.90;;;;;;4121924;28;20046;-63
2021/10/01 09:03:23;;;;;;;20.27;10.47;;;13.40;99.90;;;;;;4121462;28;20027;-64
2021/10/01 09:05:24;;;;;;;18.03;10.60;;;13.50;99.90;;;;;;4122697;28;20795;-64
2021/10/01 09:07:25;;;;;;;18.50;11.47;;;13.50;99.90;;;;;;4122339;28;20431;-64
2021/10/01 09:09:47;;;;;;;23.80;12.07;;;13.60;99.90;;;;;;4120491;28;20581;-64
2021/10/01 09:11:48;;;;;;;19.70;10.27;;;13.70;99.90;;;;;;4121781;28;20073;-65
2021/10/01 09:13:49;;;;;;;16.33;10.57;;;13.80;99.90;;;;;;4122190;28;20038;-64
2021/10/01 09:16:05;;;;;;;18.00;10.90;;;13.80;99.90;;;;;;4122262;28;20038;-63
2021/10/01 09:18:06;;;;;;;19.07;10.83;;;13.80;99.90;;;;;;4121929;28;20034;-63
2021/10/01 09:20:08;;;;;;;21.40;11.07;;;14.00;99.90;;;;;;4122589;28;20494;-65
2021/10/01 09:22:09;;;;;;;19.40;11.47;;;14.00;99.90;;;;;;4122561;28;20030;-64
2021/10/01 09:24:13;;;;;;;21.00;10.47;;;14.00;99.90;;;;;;4122575;28;20050;-64
2021/10/01 09:26:18;;;;;;;16.83;10.23;;;14.00;99.90;;;;;;4121682;28;20093;-64
2021/10/01 09:28:19;;;;;;;20.17;11.10;;;13.90;99.90;;;;;;4122648;28;20430;-65
2021/10/01 09:30:22;;;;;;;18.47;11.10;;;13.90;99.90;;;;;;4124292;28;20038;-64
2021/10/01 09:32:23;;;;;;;23.53;11.37;;;13.90;99.90;;;;;;4125962;28;20034;-63
2021/10/01 09:34:24;;;;;;;15.20;10.27;;;14.10;99.90;;;;;;4124350;28;20096;-64
2021/10/01 09:36:26;;;;;;;23.20;12.17;;;14.30;99.90;;;;;;4125407;28;20027;-65
2021/10/01 09:38:36;;;;;;;18.97;12.50;;;14.40;99.90;;;;;;4124025;28;20043;-64
2021/10/01 09:40:38;;;;;;;17.80;10.80;;;14.50;99.90;;;;;;4125815;28;20085;-64
2021/10/01 09:42:43;;;;;;;17.07;11.53;;;14.60;99.90;;;;;;4123629;28;20117;-64
2021/10/01 09:44:55;;;;;;;20.88;13.25;;;14.60;99.90;;;;;;4125258;28;20038;-65
2021/10/01 09:46:57;;;;;;;17.07;11.30;;;14.90;99.90;;;;;;4123242;28;20042;-64
2021/10/01 09:48:58;;;;;;;17.25;11.02;;;15.10;99.90;;;;;;4125325;28;20034;-65
2021/10/01 09:51:14;;;;;;;16.87;10.30;;;15.20;99.90;;;;;;4124985;28;20690;-65
2021/10/01 09:53:15;;;;;;;16.08;11.40;;;15.40;99.90;;;;;;4125172;28;20084;-66
2021/10/01 09:55:18;;;;;;;16.25;10.57;;;15.60;99.90;;;;;;4124442;28;20413;-64
2021/10/01 09:57:19;;;;;;;17.02;10.32;;;15.50;99.90;;;;;;4125264;28;20490;-64
2021/10/01 09:59:24;;;;;;;16.48;10.50;;;15.40;99.90;;;;;;4124632;28;20042;-65
2021/10/01 10:01:25;;;;;;;16.65;10.20;;;15.40;99.90;;;;;;4124917;28;20046;-64
2021/10/01 10:03:26;;;;;;;16.25;10.85;;;15.40;99.90;;;;;;4125278;28;20042;-63
2021/10/01 10:06:03;;;;;;;25.70;16.80;;;15.60;99.90;;;;;;4124586;28;20384;-63
2021/10/01 10:08:05;;;;;;;14.50;10.43;;;15.90;99.90;;;;;;4122375;28;20038;-63
2021/10/01 10:10:08;;;;;;;19.48;10.85;;;15.90;99.90;;;;;;4124723;28;20447;-67
2021/10/01 10:12:12;;;;;;;14.82;9.35;;;15.90;99.90;;;;;;4124816;28;20046;-63
2021/10/01 10:14:14;;;;;;;18.65;10.30;;;15.80;99.90;;;;;;4124123;28;20073;-64
2021/10/01 10:16:19;;;;;;;16.70;9.40;;;15.70;99.90;;;;;;4124952;28;20088;-64
2021/10/01 10:18:20;;;;;;;15.93;10.02;;;15.70;99.90;;;;;;4124689;28;20120;-64
2021/10/01 10:20:21;;;;;;;14.70;10.10;;;15.70;99.90;;;;;;4124929;28;20101;-63
2021/10/01 10:22:24;;;;;;;15.77;9.70;;;15.70;99.90;;;;;;4124349;28;20038;-63
2021/10/01 10:24:26;;;;;;;14.88;9.70;;;15.70;99.90;;;;;;4125049;28;20092;-63
2021/10/01 10:26:27;;;;;;;17.60;9.65;;;15.60;99.90;;;;;;4124122;28;20100;-64
2021/10/01 10:28:29;;;;;;;16.75;11.35;;;15.60;99.90;;;;;;4125489;28;20109;-64
2021/10/01 10:30:30;;;;;;;14.52;9.60;;;15.60;99.90;;;;;;4123887;28;20076;-65
2021/10/01 10:32:31;;;;;;;14.90;9.25;;;15.60;99.90;;;;;;4125219;28;20105;-63
2021/10/01 10:34:33;;;;;;;15.55;9.75;;;15.70;99.90;;;;;;4123595;28;20127;-64
2021/10/01 10:36:44;;;;;;;18.38;10.23;;;15.70;99.90;;;;;;4124508;28;20030;-64
2021/10/01 10:38:45;;;;;;;17.58;9.77;;;15.70;99.90;;;;;;4123873;28;20202;-63
2021/10/01 10:40:47;;;;;;;12.52;9.35;;;15.70;99.90;;;;;;4123397;28;20104;-63
2021/10/01 10:42:50;;;;;;;15.80;9.68;;;15.70;99.90;;;;;;4124155;28;20084;-63
2021/10/01 10:45:04;;;;;;;15.25;10.18;;;15.80;99.90;;;;;;4124041;28;20046;-63
2021/10/01 10:47:05;;;;;;;13.85;8.88;;;15.80;99.90;;;;;;4123451;28;20099;-64
2021/10/01 10:49:21;;;;;;;14.40;9.05;;;16.00;99.90;;;;;;4124040;28;20380;-64
2021/10/01 10:51:22;;;;;;;19.58;8.75;;;16.00;99.90;;;;;;4124222;28;20089;-64
2021/10/01 10:53:26;;;;;;;13.55;8.93;;;16.10;99.90;;;;;;4124059;28;20038;-67
2021/10/01 10:55:28;;;;;;;15.77;8.70;;;16.20;99.90;;;;;;4124181;28;20081;-64
2021/10/01 10:57:30;;;;;;;11.77;8.63;;;16.30;99.90;;;;;;4123684;28;20030;-63
2021/10/01 10:59:32;;;;;;;20.05;9.10;;;16.30;99.90;;;;;;4123428;28;20050;-63
2021/10/01 11:01:34;;;;;;;16.92;8.82;;;16.20;99.90;;;;;;4123232;28;20087;-67
2021/10/01 11:03:37;;;;;;;18.88;9.07;;;16.20;99.90;;;;;;4124534;28;20058;-64
2021/10/01 11:05:38;;;;;;;16.55;9.60;;;16.30;99.90;;;;;;4123062;28;20030;-65
2021/10/01 11:07:52;;;;;;;13.48;7.88;;;16.40;99.90;;;;;;4123873;28;20073;-63
2021/10/01 11:09:53;;;;;;;14.90;7.93;;;16.50;99.90;;;;;;4123236;28;20057;-63
2021/10/01 11:11:58;;;;;;;11.77;8.40;;;16.50;99.90;;;;;;4124088;28;20177;-63
2021/10/01 11:14:14;;;;;;;16.23;8.60;;;16.50;99.90;;;;;;4122494;28;20030;-63
2021/10/01 11:16:18;;;;;;;14.57;8.05;;;16.50;99.90;;;;;;4124423;28;20042;-63
2021/10/01 11:18:19;;;;;;;18.55;8.40;;;16.50;99.90;;;;;;4122978;28;20047;-65
2021/10/01 11:20:36;;;;;;;20.20;8.35;;;16.60;99.90;;;;;;4124038;28;20446;-65
2021/10/01 11:22:41;;;;;;;13.63;7.85;;;16.70;99.90;;;;;;4123186;28;20450;-63
2021/10/01 11:24:47;;;;;;;15.10;8.75;;;17.00;99.90;;;;;;4124021;28;20503;-64
2021/10/01 11:26:55;;;;;;;19.13;8.65;;;17.20;99.90;;;;;;4122380;28;20104;-62
2021/10/01 11:28:57;;;;;;;31.65;12.52;;;17.40;99.90;;;;;;4123884;28;20483;-62
2021/10/01 11:30:58;;;;;;;25.40;11.90;;;17.50;99.90;;;;;;4121223;28;20089;-65
2021/10/01 11:33:11;;;;;;;15.27;7.97;;;17.60;99.90;;;;;;4123634;28;20046;-63
2021/10/01 11:35:12;;;;;;;72.40;28.65;;;17.80;99.90;;;;;;4123234;28;20089;-62
2021/10/01 11:37:44;;;;;;;13.10;8.00;;;17.90;99.90;;;;;;4123711;28;20034;-63
2021/10/01 11:39:45;;;;;;;19.85;10.30;;;18.00;99.90;;;;;;4121607;28;20119;-63
2021/10/01 11:41:48;;;;;;;14.95;8.27;;;18.00;99.90;;;;;;4124146;28;20031;-64
2021/10/01 11:43:54;;;;;;;11.27;7.20;;;18.00;99.90;;;;;;4122968;28;20077;-63
2021/10/01 11:45:56;;;;;;;13.15;7.60;;;17.90;99.90;;;;;;4123665;28;20753;-64
2021/10/01 11:48:04;;;;;;;12.70;7.80;;;17.80;99.90;;;;;;4123351;28;20023;-63
2021/10/01 11:50:07;;;;;;;15.15;8.68;;;17.70;99.90;;;;;;4123845;28;20034;-65
2021/10/01 11:52:10;;;;;;;12.02;7.65;;;17.70;99.90;;;;;;4123030;28;20035;-66
2021/10/01 11:54:14;;;;;;;15.70;7.20;;;17.60;99.90;;;;;;4123599;28;20101;-64
2021/10/01 11:56:15;;;;;;;11.88;6.65;;;17.60;99.90;;;;;;4123394;28;20034;-64
2021/10/01 11:58:18;;;;;;;16.45;6.97;;;17.60;99.90;;;;;;4121665;28;20051;-64
2021/10/01 12:00:22;;;;;;;9.18;6.20;;;17.60;99.90;;;;;;4123247;28;20100;-64